createdAt,value
2022-11-18T00:00:14.604Z,922.29
2022-11-18T00:01:14.563Z,922.25
2022-11-18T00:02:15.173Z,922.25
2022-11-18T00:03:14.540Z,922.24
2022-11-18T00:04:14.534Z,922.23
2022-11-18T00:05:14.530Z,922.18
2022-11-18T00:06:14.546Z,922.20
2022-11-18T00:07:14.580Z,922.14
2022-11-18T00:08:14.512Z,922.14
2022-11-18T00:09:14.995Z,922.07
2022-11-18T00:10:14.524Z,922.04
2022-11-18T00:11:14.479Z,921.97
2022-11-18T00:12:14.447Z,921.98
2022-11-18T00:13:14.441Z,922.00
2022-11-18T00:14:14.438Z,921.94
2022-11-18T00:15:14.416Z,921.89
2022-11-18T00:16:14.440Z,921.82
2022-11-18T00:17:14.423Z,921.83
2022-11-18T00:18:14.394Z,921.78
2022-11-18T00:19:14.671Z,921.76
2022-11-18T00:20:14.379Z,921.73
2022-11-18T00:21:14.352Z,921.67
2022-11-18T00:22:14.404Z,921.67
2022-11-18T00:23:14.339Z,921.67
2022-11-18T00:24:14.387Z,921.66
2022-11-18T00:25:15.139Z,921.63
2022-11-18T00:26:14.325Z,921.65
2022-11-18T00:27:14.323Z,921.67
2022-11-18T00:28:14.309Z,921.63
2022-11-18T00:29:15.017Z,921.60
2022-11-18T00:30:14.266Z,921.64
2022-11-18T00:31:14.253Z,921.68
2022-11-18T00:32:14.255Z,921.69
2022-11-18T00:33:14.239Z,921.70
2022-11-18T00:34:14.274Z,921.67
2022-11-18T00:35:14.215Z,921.71
2022-11-18T00:36:14.234Z,921.69
2022-11-18T00:37:14.194Z,921.69
2022-11-18T00:38:14.225Z,921.71
2022-11-18T00:39:14.603Z,921.69
2022-11-18T00:40:14.192Z,921.72
2022-11-18T00:41:14.157Z,921.69
2022-11-18T00:42:14.134Z,921.70
2022-11-18T00:43:14.134Z,921.71
2022-11-18T00:44:14.150Z,921.75
2022-11-18T00:45:14.156Z,921.74
2022-11-18T00:46:14.102Z,921.76
2022-11-18T00:47:14.093Z,921.72
2022-11-18T00:48:14.071Z,921.71
2022-11-18T00:49:14.380Z,921.73
2022-11-18T00:50:14.053Z,921.73
2022-11-18T00:51:14.089Z,921.71
2022-11-18T00:52:14.064Z,921.82
2022-11-18T00:53:14.032Z,921.87
2022-11-18T00:54:14.006Z,921.85
2022-11-18T00:55:14.001Z,921.87
2022-11-18T00:56:14.034Z,921.84
2022-11-18T00:57:14.023Z,921.91
2022-11-18T00:58:13.987Z,921.88
2022-11-18T00:59:13.961Z,921.88
2022-11-18T01:00:13.995Z,921.83
2022-11-18T01:01:14.084Z,921.83
2022-11-18T01:02:13.939Z,921.79
2022-11-18T01:03:13.920Z,921.82
2022-11-18T01:04:13.904Z,921.85
2022-11-18T01:05:13.906Z,921.80
2022-11-18T01:06:13.950Z,921.82
2022-11-18T01:07:13.912Z,921.78
2022-11-18T01:08:13.882Z,921.85
2022-11-18T01:09:13.976Z,921.81
2022-11-18T01:10:13.842Z,921.84
2022-11-18T01:11:13.901Z,921.86
2022-11-18T01:12:13.867Z,921.82
2022-11-18T01:13:13.856Z,921.83
2022-11-18T01:14:13.801Z,921.83
2022-11-18T01:15:13.806Z,921.89
2022-11-18T01:16:13.783Z,921.90
2022-11-18T01:17:18.683Z,921.84
2022-11-18T01:18:13.772Z,921.91
2022-11-18T01:19:13.803Z,921.90
2022-11-18T01:20:13.747Z,921.92
2022-11-18T01:21:13.778Z,921.90
2022-11-18T01:22:13.716Z,921.88
2022-11-18T01:23:13.704Z,921.91
2022-11-18T01:24:13.726Z,921.93
2022-11-18T01:25:14.648Z,921.90
2022-11-18T01:26:13.675Z,921.93
2022-11-18T01:27:13.676Z,921.90
2022-11-18T01:28:16.477Z,921.93
2022-11-18T01:29:14.870Z,921.94
2022-11-18T01:30:13.637Z,921.98
2022-11-18T01:31:13.618Z,921.97
2022-11-18T01:32:29.068Z,921.93
2022-11-18T01:33:14.615Z,921.92
2022-11-18T01:34:13.626Z,921.88
2022-11-18T01:35:13.577Z,921.92
2022-11-18T01:36:13.618Z,921.93
2022-11-18T01:37:13.555Z,921.94
2022-11-18T01:38:13.551Z,921.94
2022-11-18T01:39:13.538Z,921.94
2022-11-18T01:40:13.568Z,921.91
2022-11-18T01:41:13.530Z,921.87
2022-11-18T01:42:13.530Z,921.88
2022-11-18T01:43:13.536Z,921.87
2022-11-18T01:44:13.514Z,921.88
2022-11-18T01:45:13.607Z,921.85
2022-11-18T01:46:13.470Z,921.83
2022-11-18T01:47:13.458Z,921.86
2022-11-18T01:48:13.467Z,921.84
2022-11-18T01:49:13.432Z,921.85
2022-11-18T01:50:13.431Z,921.87
2022-11-18T01:51:13.439Z,921.87
2022-11-18T01:52:13.414Z,921.86
2022-11-18T01:53:13.390Z,921.84
2022-11-18T01:54:13.399Z,921.90
2022-11-18T01:55:13.365Z,921.85
2022-11-18T01:56:13.396Z,921.85
2022-11-18T01:57:13.377Z,921.85
2022-11-18T01:58:13.417Z,921.86
2022-11-18T01:59:14.275Z,921.90
2022-11-18T02:00:13.352Z,921.86
2022-11-18T02:01:13.350Z,921.91
2022-11-18T02:02:13.303Z,921.94
2022-11-18T02:03:13.294Z,921.90
2022-11-18T02:04:13.298Z,921.90
2022-11-18T02:05:13.266Z,921.96
2022-11-18T02:06:13.297Z,921.95
2022-11-18T02:07:13.331Z,921.95
2022-11-18T02:08:13.289Z,921.98
2022-11-18T02:09:14.155Z,921.97
2022-11-18T02:10:13.228Z,921.99
2022-11-18T02:11:13.207Z,921.98
2022-11-18T02:12:13.255Z,921.99
2022-11-18T02:13:13.241Z,921.99
2022-11-18T02:14:13.188Z,922.01
2022-11-18T02:15:13.162Z,922.01
2022-11-18T02:16:13.177Z,921.98
2022-11-18T02:17:13.136Z,921.97
2022-11-18T02:18:13.134Z,921.95
2022-11-18T02:19:13.149Z,921.95
2022-11-18T02:20:13.130Z,921.97
2022-11-18T02:21:13.127Z,921.96
2022-11-18T02:22:13.138Z,921.99
2022-11-18T02:23:13.074Z,922.01
2022-11-18T02:24:13.112Z,922.00
2022-11-18T02:25:13.064Z,922.03
2022-11-18T02:26:13.106Z,922.00
2022-11-18T02:27:13.035Z,921.99
2022-11-18T02:28:13.030Z,922.03
2022-11-18T02:29:13.039Z,922.01
2022-11-18T02:30:13.012Z,922.01
2022-11-18T02:31:13.032Z,922.01
2022-11-18T02:32:13.082Z,921.98
2022-11-18T02:33:12.981Z,921.99
2022-11-18T02:34:12.985Z,922.00
2022-11-18T02:35:12.950Z,921.94
2022-11-18T02:36:13.018Z,921.94
2022-11-18T02:37:12.957Z,921.91
2022-11-18T02:38:12.928Z,921.89
2022-11-18T02:39:12.963Z,921.85
2022-11-18T02:40:12.900Z,921.87
2022-11-18T02:41:12.892Z,921.92
2022-11-18T02:42:12.918Z,921.93
2022-11-18T02:43:12.909Z,921.96
2022-11-18T02:44:12.884Z,921.95
2022-11-18T02:45:12.870Z,921.95
2022-11-18T02:46:12.847Z,921.98
2022-11-18T02:47:12.899Z,922.00
2022-11-18T02:48:12.954Z,922.02
2022-11-18T02:49:12.940Z,922.00
2022-11-18T02:50:12.794Z,922.04
2022-11-18T02:51:12.785Z,922.03
2022-11-18T02:52:12.780Z,922.06
2022-11-18T02:53:12.777Z,922.01
2022-11-18T02:54:12.774Z,922.08
2022-11-18T02:55:12.778Z,922.06
2022-11-18T02:56:12.740Z,922.06
2022-11-18T02:57:12.727Z,922.10
2022-11-18T02:58:12.726Z,922.07
2022-11-18T02:59:12.701Z,922.13
2022-11-18T03:00:12.706Z,922.12
2022-11-18T03:01:12.799Z,922.12
2022-11-18T03:02:12.686Z,922.11
2022-11-18T03:03:13.174Z,922.09
2022-11-18T03:04:12.675Z,922.10
2022-11-18T03:05:12.685Z,922.12
2022-11-18T03:06:12.673Z,922.09
2022-11-18T03:07:12.714Z,922.07
2022-11-18T03:08:12.637Z,922.12
2022-11-18T03:09:12.612Z,922.14
2022-11-18T03:10:12.596Z,922.15
2022-11-18T03:11:12.590Z,922.16
2022-11-18T03:12:12.612Z,922.15
2022-11-18T03:13:12.588Z,922.10
2022-11-18T03:14:12.550Z,922.09
2022-11-18T03:15:12.542Z,922.11
2022-11-18T03:16:12.534Z,922.14
2022-11-18T03:17:12.573Z,922.17
2022-11-18T03:18:12.521Z,922.19
2022-11-18T03:19:12.496Z,922.28
2022-11-18T03:20:12.504Z,922.32
2022-11-18T03:21:12.472Z,922.31
2022-11-18T03:22:12.506Z,922.30
2022-11-18T03:23:12.486Z,922.23
2022-11-18T03:24:12.456Z,922.28
2022-11-18T03:25:12.483Z,922.25
2022-11-18T03:26:13.178Z,922.24
2022-11-18T03:27:12.412Z,922.16
2022-11-18T03:28:12.420Z,922.10
2022-11-18T03:29:12.395Z,922.10
2022-11-18T03:30:12.448Z,922.11
2022-11-18T03:31:12.372Z,922.15
2022-11-18T03:32:12.371Z,922.13
2022-11-18T03:33:12.352Z,922.09
2022-11-18T03:34:12.354Z,922.13
2022-11-18T03:35:12.332Z,922.17
2022-11-18T03:36:12.373Z,922.13
2022-11-18T03:37:12.313Z,922.16
2022-11-18T03:38:12.354Z,922.19
2022-11-18T03:39:12.289Z,922.19
2022-11-18T03:40:12.308Z,922.29
2022-11-18T03:41:12.268Z,922.25
2022-11-18T03:42:12.269Z,922.28
2022-11-18T03:43:12.249Z,922.28
2022-11-18T03:44:12.230Z,922.24
2022-11-18T03:45:12.228Z,922.36
2022-11-18T03:46:12.242Z,922.37
2022-11-18T03:47:17.197Z,922.42
2022-11-18T03:48:12.208Z,922.40
2022-11-18T03:49:12.186Z,922.47
2022-11-18T03:50:12.175Z,922.44
2022-11-18T03:51:12.183Z,922.44
2022-11-18T03:52:12.188Z,922.44
2022-11-18T03:53:12.158Z,922.41
2022-11-18T03:54:12.137Z,922.44
2022-11-18T03:55:12.121Z,922.43
2022-11-18T03:56:17.127Z,922.41
2022-11-18T03:57:13.127Z,922.37
2022-11-18T03:58:12.120Z,922.33
2022-11-18T03:59:12.090Z,922.32
2022-11-18T04:00:12.069Z,922.38
2022-11-18T04:01:12.061Z,922.38
2022-11-18T04:02:12.108Z,922.35
2022-11-18T04:03:12.074Z,922.39
2022-11-18T04:04:12.031Z,922.43
2022-11-18T04:05:12.026Z,922.38
2022-11-18T04:06:12.000Z,922.45
2022-11-18T04:07:12.113Z,922.44
2022-11-18T04:08:12.025Z,922.47
2022-11-18T04:09:11.980Z,922.47
2022-11-18T04:10:11.966Z,922.46
2022-11-18T04:11:11.984Z,922.49
2022-11-18T04:12:11.941Z,922.51
2022-11-18T04:13:12.010Z,922.52
2022-11-18T04:14:12.234Z,922.52
2022-11-18T04:15:11.926Z,922.49
2022-11-18T04:16:11.943Z,922.54
2022-11-18T04:17:16.719Z,922.56
2022-11-18T04:18:11.882Z,922.52
2022-11-18T04:19:11.873Z,922.56
2022-11-18T04:20:11.854Z,922.56
2022-11-18T04:21:19.409Z,922.60
2022-11-18T04:22:11.832Z,922.56
2022-11-18T04:23:11.843Z,922.59
2022-11-18T04:24:11.836Z,922.58
2022-11-18T04:25:11.864Z,922.60
2022-11-18T04:26:11.798Z,922.59
2022-11-18T04:27:11.790Z,922.60
2022-11-18T04:28:11.808Z,922.61
2022-11-18T04:29:11.789Z,922.61
2022-11-18T04:30:11.755Z,922.67
2022-11-18T04:31:11.792Z,922.69
2022-11-18T04:32:11.801Z,922.67
2022-11-18T04:33:11.732Z,922.75
2022-11-18T04:34:11.716Z,922.71
2022-11-18T04:35:11.724Z,922.71
2022-11-18T04:36:11.729Z,922.74
2022-11-18T04:37:11.736Z,922.72
2022-11-18T04:38:11.704Z,922.70
2022-11-18T04:39:11.668Z,922.76
2022-11-18T04:40:11.687Z,922.74
2022-11-18T04:41:11.700Z,922.73
2022-11-18T04:42:11.631Z,922.72
2022-11-18T04:43:11.652Z,922.74
2022-11-18T04:44:11.612Z,922.70
2022-11-18T04:45:11.636Z,922.74
2022-11-18T04:46:11.622Z,922.70
2022-11-18T04:47:11.592Z,922.62
2022-11-18T04:48:11.605Z,922.62
2022-11-18T04:49:11.558Z,922.66
2022-11-18T04:50:11.545Z,922.51
2022-11-18T04:51:11.564Z,922.58
2022-11-18T04:52:11.533Z,922.56
2022-11-18T04:53:11.540Z,922.60
2022-11-18T04:54:11.550Z,922.60
2022-11-18T04:55:11.498Z,922.57
2022-11-18T04:56:11.516Z,922.57
2022-11-18T04:57:11.485Z,922.61
2022-11-18T04:58:11.502Z,922.65
2022-11-18T04:59:11.478Z,922.61
2022-11-18T05:00:11.487Z,922.59
2022-11-18T05:01:11.559Z,922.60
2022-11-18T05:02:11.425Z,922.59
2022-11-18T05:03:11.413Z,922.61
2022-11-18T05:04:11.413Z,922.57
2022-11-18T05:05:11.439Z,922.61
2022-11-18T05:06:11.376Z,922.63
2022-11-18T05:07:11.455Z,922.63
2022-11-18T05:08:11.388Z,922.62
2022-11-18T05:09:11.358Z,922.62
2022-11-18T05:10:11.355Z,922.65
2022-11-18T05:11:11.401Z,922.68
2022-11-18T05:12:11.481Z,922.72
2022-11-18T05:13:11.301Z,922.71
2022-11-18T05:14:11.293Z,922.73
2022-11-18T05:15:11.289Z,922.71
2022-11-18T05:16:11.290Z,922.74
2022-11-18T05:17:11.318Z,922.77
2022-11-18T05:18:11.257Z,922.73
2022-11-18T05:19:11.243Z,922.73
2022-11-18T05:20:11.232Z,922.76
2022-11-18T05:21:11.257Z,922.77
2022-11-18T05:22:11.283Z,922.84
2022-11-18T05:23:11.230Z,922.81
2022-11-18T05:24:11.203Z,922.76
2022-11-18T05:25:11.254Z,922.82
2022-11-18T05:26:11.210Z,922.86
2022-11-18T05:27:11.174Z,922.82
2022-11-18T05:28:11.172Z,922.83
2022-11-18T05:29:11.206Z,922.86
2022-11-18T05:30:11.195Z,922.90
2022-11-18T05:31:11.115Z,922.90
2022-11-18T05:32:11.113Z,922.92
2022-11-18T05:33:11.111Z,922.95
2022-11-18T05:34:11.088Z,922.93
2022-11-18T05:35:11.129Z,922.98
2022-11-18T05:36:11.100Z,922.99
2022-11-18T05:37:11.060Z,923.05
2022-11-18T05:38:11.081Z,923.08
2022-11-18T05:39:11.076Z,923.11
2022-11-18T05:40:11.049Z,923.14
2022-11-18T05:41:11.030Z,923.18
2022-11-18T05:42:11.042Z,923.20
2022-11-18T05:43:10.999Z,923.16
2022-11-18T05:44:11.001Z,923.18
2022-11-18T05:45:10.997Z,923.26
2022-11-18T05:46:10.959Z,923.25
2022-11-18T05:47:15.742Z,923.26
2022-11-18T05:48:10.968Z,923.22
2022-11-18T05:49:10.947Z,923.27
2022-11-18T05:50:10.934Z,923.28
2022-11-18T05:51:10.957Z,923.33
2022-11-18T05:52:10.931Z,923.39
2022-11-18T05:53:10.911Z,923.43
2022-11-18T05:54:10.884Z,923.51
2022-11-18T05:55:10.884Z,923.53
2022-11-18T05:56:10.898Z,923.54
2022-11-18T05:57:10.872Z,923.54
2022-11-18T05:58:11.009Z,923.63
2022-11-18T05:59:10.857Z,923.55
2022-11-18T06:00:11.758Z,923.54
2022-11-18T06:01:10.820Z,923.54
2022-11-18T06:02:10.796Z,923.65
2022-11-18T06:03:10.821Z,923.61
2022-11-18T06:04:10.778Z,923.62
2022-11-18T06:05:10.844Z,923.58
2022-11-18T06:06:10.758Z,923.66
2022-11-18T06:07:10.836Z,923.68
2022-11-18T06:08:10.765Z,923.68
2022-11-18T06:09:10.735Z,923.68
2022-11-18T06:10:10.714Z,923.70
2022-11-18T06:11:10.712Z,923.70
2022-11-18T06:12:10.741Z,923.76
2022-11-18T06:13:10.717Z,923.77
2022-11-18T06:14:10.712Z,923.75
2022-11-18T06:15:10.669Z,923.74
2022-11-18T06:16:10.728Z,923.74
2022-11-18T06:17:15.240Z,923.81
2022-11-18T06:18:10.643Z,923.84
2022-11-18T06:19:10.652Z,923.79
2022-11-18T06:20:10.625Z,923.80
2022-11-18T06:21:10.623Z,923.81
2022-11-18T06:22:10.589Z,923.87
2022-11-18T06:23:10.671Z,923.93
2022-11-18T06:24:10.585Z,923.94
2022-11-18T06:25:10.604Z,923.92
2022-11-18T06:26:10.587Z,923.99
2022-11-18T06:27:10.569Z,923.94
2022-11-18T06:28:10.534Z,923.93
2022-11-18T06:29:10.568Z,923.95
2022-11-18T06:30:10.502Z,924.00
2022-11-18T06:31:10.503Z,923.92
2022-11-18T06:32:10.535Z,923.99
2022-11-18T06:33:10.505Z,923.98
2022-11-18T06:34:10.482Z,923.97
2022-11-18T06:35:10.492Z,923.96
2022-11-18T06:36:10.483Z,924.04
2022-11-18T06:37:10.449Z,924.03
2022-11-18T06:38:10.486Z,923.98
2022-11-18T06:39:10.415Z,924.00
2022-11-18T06:40:10.407Z,923.99
2022-11-18T06:41:10.452Z,924.02
2022-11-18T06:42:10.401Z,924.01
2022-11-18T06:43:10.376Z,924.00
2022-11-18T06:44:10.384Z,924.04
2022-11-18T06:45:10.449Z,923.94
2022-11-18T06:46:10.357Z,924.03
2022-11-18T06:47:10.352Z,924.03
2022-11-18T06:48:10.553Z,924.07
2022-11-18T06:49:10.377Z,924.08
2022-11-18T06:50:10.306Z,924.11
2022-11-18T06:51:10.300Z,924.04
2022-11-18T06:52:10.291Z,924.19
2022-11-18T06:53:10.280Z,924.12
2022-11-18T06:54:11.086Z,924.09
2022-11-18T06:55:10.270Z,924.10
2022-11-18T06:56:10.265Z,924.16
2022-11-18T06:57:10.259Z,924.22
2022-11-18T06:58:10.241Z,924.21
2022-11-18T06:59:10.232Z,924.20
2022-11-18T07:00:10.249Z,924.18
2022-11-18T07:01:10.225Z,924.22
2022-11-18T07:02:10.171Z,924.23
2022-11-18T07:03:10.197Z,924.20
2022-11-18T07:04:10.182Z,924.17
2022-11-18T07:05:10.169Z,924.18
2022-11-18T07:06:10.236Z,924.17
2022-11-18T07:07:10.297Z,924.14
2022-11-18T07:08:10.143Z,924.10
2022-11-18T07:09:10.111Z,924.09
2022-11-18T07:10:10.512Z,924.11
2022-11-18T07:11:10.122Z,924.07
2022-11-18T07:12:10.122Z,924.13
2022-11-18T07:13:10.069Z,924.22
2022-11-18T07:14:10.074Z,924.18
2022-11-18T07:15:10.040Z,924.20
2022-11-18T07:16:10.053Z,924.23
2022-11-18T07:17:20.801Z,924.22
2022-11-18T07:18:10.110Z,924.19
2022-11-18T07:19:10.028Z,924.27
2022-11-18T07:20:10.013Z,924.27
2022-11-18T07:21:10.024Z,924.25
2022-11-18T07:22:10.033Z,924.23
2022-11-18T07:23:09.971Z,924.32
2022-11-18T07:24:09.954Z,924.32
2022-11-18T07:25:10.004Z,924.37
2022-11-18T07:26:09.929Z,924.34
2022-11-18T07:27:09.913Z,924.33
2022-11-18T07:28:09.941Z,924.39
2022-11-18T07:29:09.918Z,924.43
2022-11-18T07:30:09.950Z,924.44
2022-11-18T07:31:09.871Z,924.42
2022-11-18T07:32:09.870Z,924.43
2022-11-18T07:33:09.893Z,924.46
2022-11-18T07:34:09.875Z,924.43
2022-11-18T07:35:09.855Z,924.49
2022-11-18T07:36:09.890Z,924.46
2022-11-18T07:37:09.876Z,924.48
2022-11-18T07:38:10.312Z,924.50
2022-11-18T07:40:37.812Z,924.48
2022-11-18T07:41:37.736Z,924.50
2022-11-18T07:42:37.773Z,924.44
2022-11-18T07:43:37.703Z,924.50
2022-11-18T07:44:37.718Z,924.53
2022-11-18T07:45:37.701Z,924.50
2022-11-18T07:46:37.678Z,924.48
2022-11-18T07:47:37.674Z,924.48
2022-11-18T07:48:37.680Z,924.54
2022-11-18T07:49:37.677Z,924.45
2022-11-18T07:50:37.667Z,924.55
2022-11-18T07:51:37.746Z,924.54
2022-11-18T07:52:37.612Z,924.55
2022-11-18T07:53:37.738Z,924.66
2022-11-18T07:54:37.592Z,924.65
2022-11-18T07:55:37.673Z,924.57
2022-11-18T07:56:37.589Z,924.66
2022-11-18T07:57:37.623Z,924.65
2022-11-18T07:58:37.559Z,924.53
2022-11-18T07:59:37.533Z,924.60
2022-11-18T08:00:37.704Z,924.60
2022-11-18T08:01:37.623Z,924.63
2022-11-18T08:02:37.560Z,924.59
2022-11-18T08:03:37.551Z,924.62
2022-11-18T08:04:37.607Z,924.65
2022-11-18T08:05:37.611Z,924.58
2022-11-18T08:06:37.500Z,924.65
2022-11-18T08:07:37.758Z,924.67
2022-11-18T08:08:37.535Z,924.50
2022-11-18T08:09:37.499Z,924.59
2022-11-18T08:10:37.463Z,924.67
2022-11-18T08:11:37.431Z,924.57
2022-11-18T08:12:37.470Z,924.62
2022-11-18T08:13:37.400Z,924.68
2022-11-18T08:14:37.390Z,924.61
2022-11-18T08:15:37.511Z,924.58
2022-11-18T08:16:37.449Z,924.61
2022-11-18T08:17:42.428Z,924.62
2022-11-18T08:18:37.391Z,924.56
2022-11-18T08:19:37.332Z,924.65
2022-11-18T08:20:37.491Z,924.65
2022-11-18T08:21:37.342Z,924.63
2022-11-18T08:22:37.297Z,924.62
2022-11-18T08:23:41.669Z,924.62
2022-11-18T08:24:37.296Z,924.58
2022-11-18T08:25:37.317Z,924.59
2022-11-18T08:26:37.257Z,924.69
2022-11-18T08:27:37.275Z,924.61
2022-11-18T08:28:37.344Z,924.59
2022-11-18T08:29:37.233Z,924.59
2022-11-18T08:30:37.272Z,924.56
2022-11-18T08:31:37.199Z,924.64
2022-11-18T08:32:37.202Z,924.58
2022-11-18T08:33:37.172Z,924.59
2022-11-18T08:34:37.163Z,924.60
2022-11-18T08:35:37.144Z,924.68
2022-11-18T08:36:37.345Z,924.57
2022-11-18T08:37:37.134Z,924.69
2022-11-18T08:38:37.174Z,924.70
2022-11-18T08:39:37.124Z,924.66
2022-11-18T08:40:37.175Z,924.74
2022-11-18T08:41:37.185Z,924.78
2022-11-18T08:42:37.076Z,924.84
2022-11-18T08:43:37.133Z,924.74
2022-11-18T08:44:37.092Z,924.71
2022-11-18T08:45:37.042Z,924.77
2022-11-18T08:46:37.039Z,924.78
2022-11-18T08:47:41.786Z,924.85
2022-11-18T08:48:37.011Z,924.86
2022-11-18T08:49:36.996Z,924.79
2022-11-18T08:50:36.994Z,924.74
2022-11-18T08:51:37.022Z,924.84
2022-11-18T08:52:37.002Z,924.89
2022-11-18T08:53:36.959Z,924.86
2022-11-18T08:54:36.941Z,924.85
2022-11-18T08:55:37.105Z,924.86
2022-11-18T08:56:36.938Z,924.80
2022-11-18T08:57:36.909Z,924.80
2022-11-18T08:58:36.941Z,924.75
2022-11-18T08:59:36.962Z,924.76
2022-11-18T09:00:36.917Z,924.78
2022-11-18T09:01:37.009Z,924.78
2022-11-18T09:02:37.311Z,924.81
2022-11-18T09:03:36.838Z,924.79
2022-11-18T09:04:36.855Z,924.81
2022-11-18T09:05:36.849Z,924.82
2022-11-18T09:06:36.810Z,924.79
2022-11-18T09:07:36.907Z,924.71
2022-11-18T09:08:36.810Z,924.80
2022-11-18T09:09:36.805Z,924.80
2022-11-18T09:10:36.787Z,924.85
2022-11-18T09:11:37.806Z,924.92
2022-11-18T09:12:36.748Z,924.89
2022-11-18T09:14:20.458Z,924.98
2022-11-18T09:15:37.721Z,924.94
2022-11-18T09:16:36.800Z,924.92
2022-11-18T09:18:02.731Z,924.99
2022-11-18T09:18:36.692Z,924.98
2022-11-18T09:19:52.092Z,925.05
2022-11-18T09:20:37.661Z,925.06
2022-11-18T09:22:37.690Z,925.05
2022-11-18T09:23:36.680Z,925.11
2022-11-18T09:24:36.648Z,925.09
2022-11-18T09:25:36.605Z,925.14
2022-11-18T09:26:36.881Z,925.13
2022-11-18T09:27:36.609Z,925.20
2022-11-18T09:28:36.584Z,925.20
2022-11-18T09:29:36.584Z,925.20
2022-11-18T09:30:36.737Z,925.20
2022-11-18T09:31:36.556Z,925.15
2022-11-18T09:32:36.558Z,925.24
2022-11-18T09:33:36.591Z,925.23
2022-11-18T09:34:36.757Z,925.29
2022-11-18T09:35:36.577Z,925.31
2022-11-18T09:36:36.490Z,925.31
2022-11-18T09:37:36.536Z,925.36
2022-11-18T09:38:36.482Z,925.33
2022-11-18T09:39:36.474Z,925.31
2022-11-18T09:40:36.458Z,925.34
2022-11-18T09:41:36.436Z,925.31
2022-11-18T09:42:36.436Z,925.36
2022-11-18T09:43:36.529Z,925.32
2022-11-18T09:44:36.460Z,925.40
2022-11-18T09:45:36.413Z,925.36
2022-11-18T09:46:36.482Z,925.38
2022-11-18T09:47:57.390Z,925.39
2022-11-18T09:48:36.375Z,925.36
2022-11-18T09:49:36.406Z,925.42
2022-11-18T09:50:51.742Z,925.32
2022-11-18T09:51:37.385Z,925.38
2022-11-18T09:52:36.439Z,925.31
2022-11-18T09:53:36.380Z,925.40
2022-11-18T09:54:36.394Z,925.37
2022-11-18T09:55:36.335Z,925.42
2022-11-18T09:56:36.313Z,925.48
2022-11-18T09:57:36.302Z,925.35
2022-11-18T09:58:36.298Z,925.46
2022-11-18T09:59:36.274Z,925.47
2022-11-18T10:00:36.330Z,925.50
2022-11-18T10:01:36.302Z,925.51
2022-11-18T10:02:36.209Z,925.57
2022-11-18T10:03:36.212Z,925.61
2022-11-18T10:04:36.350Z,925.58
2022-11-18T10:05:36.208Z,925.64
2022-11-18T10:06:36.289Z,925.66
2022-11-18T10:07:36.221Z,925.62
2022-11-18T10:08:36.144Z,925.63
2022-11-18T10:11:08.207Z,925.48
2022-11-18T10:12:08.225Z,925.62
2022-11-18T10:13:08.205Z,925.60
2022-11-18T10:14:08.159Z,925.58
2022-11-18T10:15:08.133Z,925.65
2022-11-18T10:16:08.131Z,925.68
2022-11-18T10:17:13.078Z,925.67
2022-11-18T10:18:08.102Z,925.70
2022-11-18T10:19:08.069Z,925.66
2022-11-18T10:20:08.062Z,925.67
2022-11-18T10:21:08.054Z,925.72
2022-11-18T10:22:15.671Z,925.64
2022-11-18T10:23:09.067Z,925.66
2022-11-18T10:24:08.034Z,925.72
2022-11-18T10:25:08.034Z,925.70
2022-11-18T10:26:08.014Z,925.72
2022-11-18T10:27:08.512Z,925.69
2022-11-18T10:28:08.063Z,925.76
2022-11-18T10:29:08.015Z,925.74
2022-11-18T10:30:07.990Z,925.68
2022-11-18T10:31:08.556Z,925.80
2022-11-18T10:32:08.036Z,925.79
2022-11-18T10:33:07.938Z,925.72
2022-11-18T10:34:08.039Z,925.75
2022-11-18T10:35:07.917Z,925.80
2022-11-18T10:36:07.959Z,925.79
2022-11-18T10:37:07.899Z,925.76
2022-11-18T10:38:09.031Z,925.80
2022-11-18T10:39:07.879Z,925.79
2022-11-18T10:40:15.309Z,925.78
2022-11-18T10:41:15.375Z,925.71
2022-11-18T10:42:07.977Z,925.78
2022-11-18T10:43:07.830Z,925.72
2022-11-18T10:44:12.007Z,925.69
2022-11-18T10:45:07.881Z,925.74
2022-11-18T10:46:07.879Z,925.76
2022-11-18T10:47:28.826Z,925.74
2022-11-18T10:48:07.776Z,925.70
2022-11-18T10:49:07.873Z,925.76
2022-11-18T10:50:07.793Z,925.75
2022-11-18T10:51:07.946Z,925.76
2022-11-18T10:52:08.085Z,925.73
2022-11-18T10:53:07.873Z,925.73
2022-11-18T10:54:07.987Z,925.65
2022-11-18T10:55:07.801Z,925.77
2022-11-18T10:56:07.702Z,925.78
2022-11-18T10:57:07.771Z,925.82
2022-11-18T10:58:07.758Z,925.81
2022-11-18T10:59:07.670Z,925.79
2022-11-18T11:00:07.703Z,925.82
2022-11-18T11:01:07.950Z,925.75
2022-11-18T11:02:10.021Z,925.84
2022-11-18T11:03:07.760Z,925.85
2022-11-18T11:04:07.712Z,925.83
2022-11-18T11:05:07.946Z,925.76
2022-11-18T11:06:07.632Z,925.79
2022-11-18T11:07:07.751Z,925.83
2022-11-18T11:08:35.241Z,925.75
2022-11-18T11:09:08.596Z,925.74
2022-11-18T11:10:07.581Z,925.81
2022-11-18T11:11:07.683Z,925.82
2022-11-18T11:12:07.583Z,925.81
2022-11-18T11:13:07.511Z,925.77
2022-11-18T11:14:07.565Z,925.77
2022-11-18T11:15:07.600Z,925.81
2022-11-18T11:16:07.637Z,925.88
2022-11-18T11:17:12.218Z,925.83
2022-11-18T11:18:07.491Z,925.82
2022-11-18T11:19:07.505Z,925.84
2022-11-18T11:20:07.515Z,925.84
2022-11-18T11:21:07.451Z,925.82
2022-11-18T11:22:07.828Z,925.69
2022-11-18T11:23:07.434Z,925.78
2022-11-18T11:24:07.472Z,925.82
2022-11-18T11:25:07.391Z,925.84
2022-11-18T11:29:07.329Z,925.81
2022-11-18T11:30:07.348Z,925.78
2022-11-18T11:31:07.371Z,925.74
2022-11-18T11:32:07.422Z,925.74
2022-11-18T11:33:07.631Z,925.71
2022-11-18T11:34:07.318Z,925.77
2022-11-18T11:35:07.333Z,925.78
2022-11-18T11:36:07.346Z,925.80
2022-11-18T11:37:07.255Z,925.75
2022-11-18T11:38:07.250Z,925.76
2022-11-18T11:39:07.298Z,925.77
2022-11-18T11:40:07.249Z,925.76
2022-11-18T11:41:07.849Z,925.77
2022-11-18T11:42:07.241Z,925.76
2022-11-18T11:43:07.194Z,925.77
2022-11-18T11:44:07.193Z,925.70
2022-11-18T11:45:07.393Z,925.76
2022-11-18T11:46:07.153Z,925.80
2022-11-18T11:47:28.215Z,925.78
2022-11-18T11:48:07.211Z,925.83
2022-11-18T11:49:07.140Z,925.75
2022-11-18T11:50:07.137Z,925.76
2022-11-18T11:51:07.161Z,925.79
2022-11-18T11:52:07.146Z,925.80
2022-11-18T11:53:07.100Z,925.80
2022-11-18T11:54:07.176Z,925.83
2022-11-18T11:55:07.073Z,925.88
2022-11-18T11:56:07.094Z,925.85
2022-11-18T11:57:07.056Z,925.83
2022-11-18T11:58:07.144Z,925.86
2022-11-18T11:59:07.086Z,925.83
2022-11-18T12:00:07.059Z,925.82
2022-11-18T12:01:07.134Z,925.86
2022-11-18T12:02:07.139Z,925.84
2022-11-18T12:03:07.114Z,925.93
2022-11-18T12:04:06.979Z,925.84
2022-11-18T12:05:06.960Z,925.86
2022-11-18T12:06:07.057Z,925.90
2022-11-18T12:07:07.001Z,925.84
2022-11-18T12:08:07.017Z,925.93
2022-11-18T12:09:06.933Z,925.87
2022-11-18T12:10:06.936Z,925.95
2022-11-18T12:11:06.971Z,925.98
2022-11-18T12:12:06.884Z,926.01
2022-11-18T12:13:07.000Z,925.95
2022-11-18T12:14:07.117Z,925.90
2022-11-18T12:15:06.862Z,926.01
2022-11-18T12:16:06.896Z,925.95
2022-11-18T12:17:06.890Z,925.94
2022-11-18T12:18:06.842Z,926.02
2022-11-18T12:19:07.071Z,926.03
2022-11-18T12:20:06.828Z,926.03
2022-11-18T12:21:07.127Z,926.06
2022-11-18T12:22:06.830Z,926.07
2022-11-18T12:23:06.797Z,926.06
2022-11-18T12:24:06.752Z,926.11
2022-11-18T12:25:06.788Z,926.13
2022-11-18T12:26:06.767Z,926.15
2022-11-18T12:27:06.864Z,926.12
2022-11-18T12:28:06.791Z,926.14
2022-11-18T12:29:06.721Z,926.16
2022-11-18T12:30:07.129Z,926.19
2022-11-18T12:31:06.769Z,926.12
2022-11-18T12:32:06.726Z,926.13
2022-11-18T12:33:06.735Z,926.12
2022-11-18T12:34:06.670Z,926.14
2022-11-18T12:35:07.121Z,926.11
2022-11-18T12:36:06.655Z,926.13